sensor_id;sensor_type;location;lat;lon;timestamp;P1;durP1;ratioP1;P2;durP2;ratioP2
32746;SDS011;19118;50.860;13.662;2023-02-28T00:00:31;5.60;;;2.75;;
32746;SDS011;19118;50.860;13.662;2023-02-28T00:05:32;7.35;;;3.05;;
32746;SDS011;19118;50.860;13.662;2023-02-28T00:10:33;7.10;;;3.47;;
32746;SDS011;19118;50.860;13.662;2023-02-28T00:15:34;8.55;;;4.03;;
32746;SDS011;19118;50.860;13.662;2023-02-28T00:20:34;10.18;;;3.70;;
32746;SDS011;19118;50.860;13.662;2023-02-28T00:25:35;6.78;;;3.10;;
32746;SDS011;19118;50.860;13.662;2023-02-28T00:30:35;8.60;;;4.17;;
32746;SDS011;19118;50.860;13.662;2023-02-28T00:35:38;5.65;;;3.25;;
32746;SDS011;19118;50.860;13.662;2023-02-28T00:40:39;6.82;;;3.28;;
32746;SDS011;19118;50.860;13.662;2023-02-28T00:45:39;8.27;;;3.90;;
32746;SDS011;19118;50.860;13.662;2023-02-28T00:50:39;6.20;;;3.35;;
32746;SDS011;19118;50.860;13.662;2023-02-28T00:55:40;7.47;;;3.45;;
32746;SDS011;19118;50.860;13.662;2023-02-28T01:00:40;6.90;;;3.80;;
32746;SDS011;19118;50.860;13.662;2023-02-28T01:05:40;17.02;;;3.45;;
32746;SDS011;19118;50.860;13.662;2023-02-28T01:10:41;10.95;;;3.22;;
32746;SDS011;19118;50.860;13.662;2023-02-28T01:15:43;5.97;;;3.15;;
32746;SDS011;19118;50.860;13.662;2023-02-28T01:20:49;5.70;;;2.85;;
32746;SDS011;19118;50.860;13.662;2023-02-28T01:25:50;14.00;;;3.72;;
32746;SDS011;19118;50.860;13.662;2023-02-28T01:30:51;13.52;;;3.97;;
32746;SDS011;19118;50.860;13.662;2023-02-28T01:35:58;10.10;;;4.43;;
32746;SDS011;19118;50.860;13.662;2023-02-28T01:40:59;8.27;;;4.03;;
32746;SDS011;19118;50.860;13.662;2023-02-28T01:46:00;5.85;;;3.15;;
32746;SDS011;19118;50.860;13.662;2023-02-28T01:51:02;10.55;;;4.13;;
32746;SDS011;19118;50.860;13.662;2023-02-28T01:56:10;9.55;;;3.60;;
32746;SDS011;19118;50.860;13.662;2023-02-28T02:01:20;11.30;;;4.22;;
32746;SDS011;19118;50.860;13.662;2023-02-28T02:06:22;9.60;;;3.63;;
32746;SDS011;19118;50.860;13.662;2023-02-28T02:11:25;8.00;;;3.78;;
32746;SDS011;19118;50.860;13.662;2023-02-28T02:16:35;9.13;;;4.38;;
32746;SDS011;19118;50.860;13.662;2023-02-28T02:27:53;15.35;;;3.80;;
32746;SDS011;19118;50.860;13.662;2023-02-28T02:38:34;10.15;;;4.50;;
32746;SDS011;19118;50.860;13.662;2023-02-28T02:48:48;9.95;;;4.60;;
32746;SDS011;19118;50.860;13.662;2023-02-28T02:53:52;10.18;;;4.22;;
32746;SDS011;19118;50.860;13.662;2023-02-28T02:58:59;8.82;;;4.63;;
32746;SDS011;19118;50.860;13.662;2023-02-28T03:04:05;11.45;;;4.50;;
32746;SDS011;19118;50.860;13.662;2023-02-28T03:09:08;9.10;;;4.88;;
32746;SDS011;19118;50.860;13.662;2023-02-28T03:19:21;9.45;;;4.60;;
32746;SDS011;19118;50.860;13.662;2023-02-28T03:24:31;11.18;;;5.40;;
32746;SDS011;19118;50.860;13.662;2023-02-28T03:29:44;9.32;;;5.28;;
32746;SDS011;19118;50.860;13.662;2023-02-28T03:35:11;10.50;;;5.30;;
32746;SDS011;19118;50.860;13.662;2023-02-28T03:40:14;10.48;;;5.32;;
32746;SDS011;19118;50.860;13.662;2023-02-28T03:45:20;12.13;;;5.40;;
32746;SDS011;19118;50.860;13.662;2023-02-28T03:50:26;13.55;;;5.97;;
32746;SDS011;19118;50.860;13.662;2023-02-28T03:55:30;14.35;;;5.60;;
32746;SDS011;19118;50.860;13.662;2023-02-28T04:00:39;15.05;;;6.28;;
32746;SDS011;19118;50.860;13.662;2023-02-28T04:05:53;33.58;;;6.80;;
32746;SDS011;19118;50.860;13.662;2023-02-28T04:11:00;10.68;;;6.05;;
32746;SDS011;19118;50.860;13.662;2023-02-28T04:16:07;12.55;;;5.85;;
32746;SDS011;19118;50.860;13.662;2023-02-28T04:21:12;18.55;;;6.70;;
32746;SDS011;19118;50.860;13.662;2023-02-28T04:26:12;19.48;;;5.60;;
32746;SDS011;19118;50.860;13.662;2023-02-28T04:31:12;12.32;;;5.82;;
32746;SDS011;19118;50.860;13.662;2023-02-28T04:36:13;15.20;;;7.05;;
32746;SDS011;19118;50.860;13.662;2023-02-28T04:41:14;15.07;;;7.10;;
32746;SDS011;19118;50.860;13.662;2023-02-28T04:46:15;21.33;;;7.55;;
32746;SDS011;19118;50.860;13.662;2023-02-28T04:51:16;14.90;;;6.80;;
32746;SDS011;19118;50.860;13.662;2023-02-28T04:56:19;15.10;;;6.90;;
32746;SDS011;19118;50.860;13.662;2023-02-28T05:06:25;21.23;;;7.40;;
32746;SDS011;19118;50.860;13.662;2023-02-28T05:11:28;17.58;;;7.78;;
32746;SDS011;19118;50.860;13.662;2023-02-28T05:16:33;32.17;;;8.50;;
32746;SDS011;19118;50.860;13.662;2023-02-28T05:21:34;27.52;;;8.38;;
32746;SDS011;19118;50.860;13.662;2023-02-28T05:26:37;25.83;;;10.50;;
32746;SDS011;19118;50.860;13.662;2023-02-28T05:31:42;25.70;;;7.85;;
32746;SDS011;19118;50.860;13.662;2023-02-28T05:36:42;37.78;;;10.38;;
32746;SDS011;19118;50.860;13.662;2023-02-28T05:41:43;48.65;;;11.00;;
32746;SDS011;19118;50.860;13.662;2023-02-28T05:46:43;34.00;;;12.43;;
32746;SDS011;19118;50.860;13.662;2023-02-28T05:51:44;40.75;;;14.10;;
32746;SDS011;19118;50.860;13.662;2023-02-28T05:56:44;42.10;;;13.60;;
32746;SDS011;19118;50.860;13.662;2023-02-28T06:01:45;51.42;;;14.13;;
32746;SDS011;19118;50.860;13.662;2023-02-28T06:06:48;30.60;;;13.85;;
32746;SDS011;19118;50.860;13.662;2023-02-28T06:11:49;34.67;;;14.52;;
32746;SDS011;19118;50.860;13.662;2023-02-28T06:16:50;40.63;;;14.82;;
32746;SDS011;19118;50.860;13.662;2023-02-28T06:21:50;29.67;;;12.75;;
32746;SDS011;19118;50.860;13.662;2023-02-28T06:26:52;56.88;;;14.02;;
32746;SDS011;19118;50.860;13.662;2023-02-28T06:31:52;28.13;;;11.38;;
32746;SDS011;19118;50.860;13.662;2023-02-28T06:36:53;49.78;;;12.93;;
32746;SDS011;19118;50.860;13.662;2023-02-28T06:41:53;48.60;;;12.23;;
32746;SDS011;19118;50.860;13.662;2023-02-28T06:46:54;29.98;;;12.88;;
32746;SDS011;19118;50.860;13.662;2023-02-28T06:51:54;39.90;;;11.95;;
32746;SDS011;19118;50.860;13.662;2023-02-28T06:56:54;26.25;;;12.48;;
32746;SDS011;19118;50.860;13.662;2023-02-28T07:01:55;62.63;;;12.82;;
32746;SDS011;19118;50.860;13.662;2023-02-28T07:06:55;44.63;;;12.15;;
32746;SDS011;19118;50.860;13.662;2023-02-28T07:11:56;53.85;;;12.32;;
32746;SDS011;19118;50.860;13.662;2023-02-28T07:16:57;37.17;;;11.30;;
32746;SDS011;19118;50.860;13.662;2023-02-28T07:21:57;39.40;;;11.80;;
32746;SDS011;19118;50.860;13.662;2023-02-28T07:26:58;52.60;;;12.35;;
32746;SDS011;19118;50.860;13.662;2023-02-28T07:31:59;29.05;;;12.15;;
32746;SDS011;19118;50.860;13.662;2023-02-28T07:36:59;39.57;;;12.70;;
32746;SDS011;19118;50.860;13.662;2023-02-28T07:42:06;55.75;;;14.93;;
32746;SDS011;19118;50.860;13.662;2023-02-28T07:47:10;40.92;;;14.13;;
32746;SDS011;19118;50.860;13.662;2023-02-28T07:52:11;33.13;;;12.80;;
32746;SDS011;19118;50.860;13.662;2023-02-28T07:57:11;37.90;;;12.13;;
32746;SDS011;19118;50.860;13.662;2023-02-28T08:02:14;21.60;;;10.48;;
32746;SDS011;19118;50.860;13.662;2023-02-28T08:07:16;25.25;;;10.70;;
32746;SDS011;19118;50.860;13.662;2023-02-28T08:12:18;30.35;;;10.90;;
32746;SDS011;19118;50.860;13.662;2023-02-28T08:17:18;26.92;;;12.32;;
32746;SDS011;19118;50.860;13.662;2023-02-28T08:22:19;29.33;;;12.75;;
32746;SDS011;19118;50.860;13.662;2023-02-28T08:27:19;30.42;;;13.60;;
32746;SDS011;19118;50.860;13.662;2023-02-28T08:32:20;35.13;;;15.13;;
32746;SDS011;19118;50.860;13.662;2023-02-28T08:37:20;42.08;;;14.93;;
32746;SDS011;19118;50.860;13.662;2023-02-28T08:42:20;31.73;;;13.57;;
32746;SDS011;19118;50.860;13.662;2023-02-28T08:47:21;28.08;;;12.85;;
32746;SDS011;19118;50.860;13.662;2023-02-28T08:52:21;37.35;;;14.73;;
32746;SDS011;19118;50.860;13.662;2023-02-28T08:57:21;31.10;;;12.13;;
32746;SDS011;19118;50.860;13.662;2023-02-28T09:02:22;29.63;;;13.50;;
32746;SDS011;19118;50.860;13.662;2023-02-28T09:07:22;31.38;;;11.48;;
32746;SDS011;19118;50.860;13.662;2023-02-28T09:12:23;30.70;;;12.40;;
32746;SDS011;19118;50.860;13.662;2023-02-28T09:17:25;33.22;;;14.15;;
32746;SDS011;19118;50.860;13.662;2023-02-28T09:22:25;27.75;;;11.88;;
32746;SDS011;19118;50.860;13.662;2023-02-28T09:27:25;26.15;;;12.02;;
32746;SDS011;19118;50.860;13.662;2023-02-28T09:32:26;33.70;;;9.80;;
32746;SDS011;19118;50.860;13.662;2023-02-28T09:37:26;27.50;;;8.70;;
32746;SDS011;19118;50.860;13.662;2023-02-28T09:42:31;28.77;;;9.95;;
32746;SDS011;19118;50.860;13.662;2023-02-28T09:47:38;20.60;;;8.77;;
32746;SDS011;19118;50.860;13.662;2023-02-28T09:52:42;23.73;;;8.83;;
32746;SDS011;19118;50.860;13.662;2023-02-28T09:57:49;59.67;;;14.20;;
32746;SDS011;19118;50.860;13.662;2023-02-28T10:07:55;23.98;;;8.18;;
32746;SDS011;19118;50.860;13.662;2023-02-28T10:13:02;18.83;;;8.23;;
32746;SDS011;19118;50.860;13.662;2023-02-28T10:18:09;15.40;;;8.05;;
32746;SDS011;19118;50.860;13.662;2023-02-28T10:28:19;39.28;;;10.82;;
32746;SDS011;19118;50.860;13.662;2023-02-28T10:33:30;26.73;;;9.07;;
32746;SDS011;19118;50.860;13.662;2023-02-28T10:38:33;19.30;;;8.38;;
32746;SDS011;19118;50.860;13.662;2023-02-28T10:43:35;33.08;;;8.93;;
32746;SDS011;19118;50.860;13.662;2023-02-28T10:53:45;18.42;;;8.20;;
32746;SDS011;19118;50.860;13.662;2023-02-28T11:03:51;20.17;;;8.43;;
32746;SDS011;19118;50.860;13.662;2023-02-28T11:08:54;33.83;;;9.73;;
32746;SDS011;19118;50.860;13.662;2023-02-28T11:13:56;15.95;;;6.90;;
32746;SDS011;19118;50.860;13.662;2023-02-28T11:19:04;20.02;;;8.73;;
32746;SDS011;19118;50.860;13.662;2023-02-28T11:29:28;19.20;;;7.50;;
32746;SDS011;19118;50.860;13.662;2023-02-28T11:34:30;16.73;;;7.57;;
32746;SDS011;19118;50.860;13.662;2023-02-28T11:39:32;14.18;;;7.63;;
32746;SDS011;19118;50.860;13.662;2023-02-28T11:44:41;18.40;;;8.35;;
32746;SDS011;19118;50.860;13.662;2023-02-28T12:01:11;25.10;;;8.07;;
32746;SDS011;19118;50.860;13.662;2023-02-28T12:27:31;16.08;;;7.38;;
32746;SDS011;19118;50.860;13.662;2023-02-28T12:32:43;35.55;;;15.85;;
32746;SDS011;19118;50.860;13.662;2023-02-28T12:42:56;19.52;;;7.28;;
32746;SDS011;19118;50.860;13.662;2023-02-28T12:48:00;14.38;;;7.57;;
32746;SDS011;19118;50.860;13.662;2023-02-28T12:53:14;15.60;;;6.88;;
32746;SDS011;19118;50.860;13.662;2023-02-28T12:58:41;16.02;;;6.80;;
32746;SDS011;19118;50.860;13.662;2023-02-28T13:03:51;20.20;;;8.55;;
32746;SDS011;19118;50.860;13.662;2023-02-28T13:09:11;16.98;;;8.85;;
32746;SDS011;19118;50.860;13.662;2023-02-28T13:19:36;13.98;;;7.55;;
32746;SDS011;19118;50.860;13.662;2023-02-28T13:29:46;16.00;;;7.55;;
32746;SDS011;19118;50.860;13.662;2023-02-28T13:39:52;15.88;;;8.52;;
32746;SDS011;19118;50.860;13.662;2023-02-28T13:55:31;15.02;;;6.80;;
32746;SDS011;19118;50.860;13.662;2023-02-28T14:05:47;28.13;;;9.38;;
32746;SDS011;19118;50.860;13.662;2023-02-28T14:11:22;18.15;;;8.50;;
32746;SDS011;19118;50.860;13.662;2023-02-28T14:16:26;16.63;;;8.73;;
32746;SDS011;19118;50.860;13.662;2023-02-28T14:37:37;25.33;;;12.65;;
32746;SDS011;19118;50.860;13.662;2023-02-28T14:42:39;19.40;;;11.27;;
32746;SDS011;19118;50.860;13.662;2023-02-28T14:47:46;24.25;;;11.85;;
32746;SDS011;19118;50.860;13.662;2023-02-28T14:52:47;28.73;;;11.85;;
32746;SDS011;19118;50.860;13.662;2023-02-28T14:57:52;24.55;;;11.57;;
32746;SDS011;19118;50.860;13.662;2023-02-28T15:02:55;24.95;;;12.38;;
32746;SDS011;19118;50.860;13.662;2023-02-28T15:08:04;25.60;;;11.95;;
32746;SDS011;19118;50.860;13.662;2023-02-28T15:13:13;34.33;;;15.35;;
32746;SDS011;19118;50.860;13.662;2023-02-28T15:18:17;26.75;;;12.43;;
32746;SDS011;19118;50.860;13.662;2023-02-28T15:23:25;37.47;;;14.23;;
32746;SDS011;19118;50.860;13.662;2023-02-28T15:28:26;26.48;;;13.10;;
32746;SDS011;19118;50.860;13.662;2023-02-28T15:33:29;29.92;;;13.80;;
32746;SDS011;19118;50.860;13.662;2023-02-28T15:38:33;31.90;;;13.63;;
32746;SDS011;19118;50.860;13.662;2023-02-28T15:43:36;31.42;;;13.05;;
32746;SDS011;19118;50.860;13.662;2023-02-28T15:48:44;25.50;;;13.30;;
32746;SDS011;19118;50.860;13.662;2023-02-28T15:53:58;27.33;;;13.10;;
32746;SDS011;19118;50.860;13.662;2023-02-28T15:59:03;26.45;;;13.57;;
32746;SDS011;19118;50.860;13.662;2023-02-28T16:04:16;27.13;;;13.57;;
32746;SDS011;19118;50.860;13.662;2023-02-28T16:09:18;32.83;;;13.00;;
32746;SDS011;19118;50.860;13.662;2023-02-28T16:14:25;25.63;;;14.18;;
32746;SDS011;19118;50.860;13.662;2023-02-28T16:19:27;28.10;;;13.60;;
32746;SDS011;19118;50.860;13.662;2023-02-28T16:24:27;33.53;;;14.07;;
32746;SDS011;19118;50.860;13.662;2023-02-28T16:29:32;58.95;;;18.38;;
32746;SDS011;19118;50.860;13.662;2023-02-28T16:34:35;53.33;;;20.05;;
32746;SDS011;19118;50.860;13.662;2023-02-28T16:39:36;53.45;;;21.50;;
32746;SDS011;19118;50.860;13.662;2023-02-28T16:44:36;37.72;;;18.15;;
32746;SDS011;19118;50.860;13.662;2023-02-28T16:49:37;30.73;;;14.95;;
32746;SDS011;19118;50.860;13.662;2023-02-28T16:54:38;50.92;;;18.10;;
32746;SDS011;19118;50.860;13.662;2023-02-28T16:59:39;50.60;;;15.82;;
32746;SDS011;19118;50.860;13.662;2023-02-28T17:04:40;32.42;;;15.38;;
32746;SDS011;19118;50.860;13.662;2023-02-28T17:09:40;38.33;;;17.48;;
32746;SDS011;19118;50.860;13.662;2023-02-28T17:14:41;31.23;;;15.25;;
32746;SDS011;19118;50.860;13.662;2023-02-28T17:19:41;48.13;;;21.67;;
32746;SDS011;19118;50.860;13.662;2023-02-28T17:24:43;43.40;;;16.33;;
32746;SDS011;19118;50.860;13.662;2023-02-28T17:29:45;47.38;;;16.98;;
32746;SDS011;19118;50.860;13.662;2023-02-28T17:34:45;32.03;;;14.07;;
32746;SDS011;19118;50.860;13.662;2023-02-28T17:39:46;25.90;;;13.88;;
32746;SDS011;19118;50.860;13.662;2023-02-28T17:44:46;26.55;;;14.10;;
32746;SDS011;19118;50.860;13.662;2023-02-28T17:49:46;28.98;;;14.10;;
32746;SDS011;19118;50.860;13.662;2023-02-28T17:54:47;28.08;;;14.80;;
32746;SDS011;19118;50.860;13.662;2023-02-28T17:59:47;35.15;;;16.10;;
32746;SDS011;19118;50.860;13.662;2023-02-28T18:04:47;30.27;;;14.50;;
32746;SDS011;19118;50.860;13.662;2023-02-28T18:09:48;50.03;;;16.85;;
32746;SDS011;19118;50.860;13.662;2023-02-28T18:14:48;49.10;;;15.80;;
32746;SDS011;19118;50.860;13.662;2023-02-28T18:19:49;31.35;;;15.00;;
32746;SDS011;19118;50.860;13.662;2023-02-28T18:24:49;35.90;;;17.98;;
32746;SDS011;19118;50.860;13.662;2023-02-28T18:29:49;33.08;;;14.73;;
32746;SDS011;19118;50.860;13.662;2023-02-28T18:34:51;35.20;;;15.95;;
32746;SDS011;19118;50.860;13.662;2023-02-28T18:39:51;29.15;;;15.65;;
32746;SDS011;19118;50.860;13.662;2023-02-28T18:44:53;35.38;;;16.35;;
32746;SDS011;19118;50.860;13.662;2023-02-28T18:49:53;29.70;;;15.13;;
32746;SDS011;19118;50.860;13.662;2023-02-28T18:54:53;33.03;;;15.20;;
32746;SDS011;19118;50.860;13.662;2023-02-28T18:59:54;31.42;;;14.82;;
32746;SDS011;19118;50.860;13.662;2023-02-28T19:04:54;32.88;;;15.07;;
32746;SDS011;19118;50.860;13.662;2023-02-28T19:09:54;34.40;;;15.02;;
32746;SDS011;19118;50.860;13.662;2023-02-28T19:14:55;36.20;;;15.30;;
32746;SDS011;19118;50.860;13.662;2023-02-28T19:19:55;36.70;;;15.85;;
32746;SDS011;19118;50.860;13.662;2023-02-28T19:24:55;34.03;;;15.50;;
32746;SDS011;19118;50.860;13.662;2023-02-28T19:29:56;34.17;;;14.15;;
32746;SDS011;19118;50.860;13.662;2023-02-28T19:34:58;30.63;;;14.90;;
32746;SDS011;19118;50.860;13.662;2023-02-28T19:39:58;41.65;;;14.63;;
32746;SDS011;19118;50.860;13.662;2023-02-28T19:44:58;28.90;;;14.32;;
32746;SDS011;19118;50.860;13.662;2023-02-28T19:49:59;41.70;;;15.18;;
32746;SDS011;19118;50.860;13.662;2023-02-28T19:54:59;31.02;;;15.13;;
32746;SDS011;19118;50.860;13.662;2023-02-28T20:00:00;30.10;;;14.00;;
32746;SDS011;19118;50.860;13.662;2023-02-28T20:05:00;29.52;;;13.80;;
32746;SDS011;19118;50.860;13.662;2023-02-28T20:10:00;31.98;;;15.18;;
32746;SDS011;19118;50.860;13.662;2023-02-28T20:15:01;29.77;;;15.10;;
32746;SDS011;19118;50.860;13.662;2023-02-28T20:20:01;30.00;;;14.38;;
32746;SDS011;19118;50.860;13.662;2023-02-28T20:25:02;36.80;;;14.52;;
32746;SDS011;19118;50.860;13.662;2023-02-28T20:30:03;32.03;;;14.20;;
32746;SDS011;19118;50.860;13.662;2023-02-28T20:35:05;34.25;;;15.73;;
32746;SDS011;19118;50.860;13.662;2023-02-28T20:40:07;34.42;;;15.52;;
32746;SDS011;19118;50.860;13.662;2023-02-28T20:45:09;38.42;;;16.13;;
32746;SDS011;19118;50.860;13.662;2023-02-28T20:50:09;35.83;;;15.63;;
32746;SDS011;19118;50.860;13.662;2023-02-28T20:55:11;34.60;;;16.48;;
32746;SDS011;19118;50.860;13.662;2023-02-28T21:00:12;38.85;;;15.88;;
32746;SDS011;19118;50.860;13.662;2023-02-28T21:05:15;35.15;;;15.20;;
32746;SDS011;19118;50.860;13.662;2023-02-28T21:10:16;31.17;;;14.93;;
32746;SDS011;19118;50.860;13.662;2023-02-28T21:15:16;38.45;;;15.88;;
32746;SDS011;19118;50.860;13.662;2023-02-28T21:20:17;34.78;;;16.92;;
32746;SDS011;19118;50.860;13.662;2023-02-28T21:25:20;42.83;;;16.92;;
32746;SDS011;19118;50.860;13.662;2023-02-28T21:30:21;42.08;;;17.70;;
32746;SDS011;19118;50.860;13.662;2023-02-28T21:35:22;37.83;;;15.60;;
32746;SDS011;19118;50.860;13.662;2023-02-28T21:40:22;38.00;;;15.90;;
32746;SDS011;19118;50.860;13.662;2023-02-28T21:45:23;32.28;;;17.20;;
32746;SDS011;19118;50.860;13.662;2023-02-28T21:50:23;31.17;;;15.90;;
32746;SDS011;19118;50.860;13.662;2023-02-28T21:55:23;44.28;;;18.77;;
32746;SDS011;19118;50.860;13.662;2023-02-28T22:00:24;44.30;;;17.45;;
32746;SDS011;19118;50.860;13.662;2023-02-28T22:05:24;37.25;;;17.65;;
32746;SDS011;19118;50.860;13.662;2023-02-28T22:10:25;43.17;;;19.20;;
32746;SDS011;19118;50.860;13.662;2023-02-28T22:15:25;35.63;;;16.33;;
32746;SDS011;19118;50.860;13.662;2023-02-28T22:20:25;35.35;;;17.40;;
32746;SDS011;19118;50.860;13.662;2023-02-28T22:25:26;40.65;;;17.70;;
32746;SDS011;19118;50.860;13.662;2023-02-28T22:30:26;44.80;;;17.70;;
32746;SDS011;19118;50.860;13.662;2023-02-28T22:35:27;39.00;;;18.08;;
32746;SDS011;19118;50.860;13.662;2023-02-28T22:40:27;42.08;;;18.48;;
32746;SDS011;19118;50.860;13.662;2023-02-28T22:45:28;35.65;;;16.67;;
32746;SDS011;19118;50.860;13.662;2023-02-28T22:50:28;36.33;;;17.45;;
32746;SDS011;19118;50.860;13.662;2023-02-28T22:55:29;42.28;;;18.13;;
32746;SDS011;19118;50.860;13.662;2023-02-28T23:00:29;41.63;;;18.25;;
32746;SDS011;19118;50.860;13.662;2023-02-28T23:05:29;37.88;;;16.38;;
32746;SDS011;19118;50.860;13.662;2023-02-28T23:10:30;42.88;;;19.38;;
32746;SDS011;19118;50.860;13.662;2023-02-28T23:15:30;42.40;;;19.35;;
32746;SDS011;19118;50.860;13.662;2023-02-28T23:20:31;47.03;;;18.95;;
32746;SDS011;19118;50.860;13.662;2023-02-28T23:25:31;39.10;;;18.73;;
32746;SDS011;19118;50.860;13.662;2023-02-28T23:30:32;43.55;;;18.40;;
32746;SDS011;19118;50.860;13.662;2023-02-28T23:35:33;45.35;;;18.50;;
32746;SDS011;19118;50.860;13.662;2023-02-28T23:40:33;41.30;;;19.63;;
32746;SDS011;19118;50.860;13.662;2023-02-28T23:45:33;43.88;;;17.75;;
32746;SDS011;19118;50.860;13.662;2023-02-28T23:50:36;36.20;;;16.75;;
32746;SDS011;19118;50.860;13.662;2023-02-28T23:55:36;39.45;;;18.67;;
